Time;durP1;ratioP1;P1;durP2;ratioP2;P2;SDS_P1;SDS_P2;PMS_P1;PMS_P2;Temp;Humidity;BMP_temperature;BMP_pressure;BME280_temperature;BME280_humidity;BME280_pressure;Samples;Min_cycle;Max_cycle;Signal;HPM_P1;HPM_P2
2021/11/16 00:00:44;0.00;0.00;0.62;0.00;0.00;0.62;4.00;3.53;;;23.00;28.70;;;;;;2222147;62;20396;-61
2021/11/16 00:03:29;0.00;0.00;0.62;0.00;0.00;0.62;4.10;3.60;;;23.00;28.70;;;;;;2222155;62;20394;-62
2021/11/16 00:06:14;0.00;0.00;0.62;0.00;0.00;0.62;5.53;3.67;;;23.00;28.70;;;;;;2221664;62;20455;-61
2021/11/16 00:08:58;0.00;0.00;0.62;0.00;0.00;0.62;4.63;3.70;;;22.90;28.60;;;;;;2222195;62;20430;-61
2021/11/16 00:11:43;0.00;0.00;0.62;0.00;0.00;0.62;4.30;3.40;;;23.00;28.70;;;;;;2222020;62;20412;-62
2021/11/16 00:14:30;0.00;0.00;0.62;0.00;0.00;0.62;3.63;3.13;;;23.00;28.70;;;;;;2221751;62;20448;-62
2021/11/16 00:17:16;0.00;0.00;0.62;0.00;0.00;0.62;4.47;3.43;;;22.90;28.60;;;;;;2222236;62;20386;-61
2021/11/16 00:20:02;0.00;0.00;0.62;0.00;0.00;0.62;4.40;3.63;;;22.90;28.70;;;;;;2222050;62;20443;-62
2021/11/16 00:22:47;0.00;0.00;0.62;0.00;0.00;0.62;5.40;3.90;;;22.90;28.60;;;;;;2221875;62;20407;-62
2021/11/16 00:25:36;0.00;0.00;0.62;0.00;0.00;0.62;5.33;3.97;;;23.00;28.70;;;;;;2222193;62;20653;-62
2021/11/16 00:28:22;0.00;0.00;0.62;0.00;0.00;0.62;5.27;4.07;;;23.00;28.70;;;;;;2221638;62;20769;-62
2021/11/16 00:31:07;0.00;0.00;0.62;0.00;0.00;0.62;5.10;4.23;;;22.90;28.60;;;;;;2222088;62;20380;-61
2021/11/16 00:33:54;0.00;0.00;0.62;0.00;0.00;0.62;4.17;3.47;;;23.00;28.70;;;;;;2221805;62;20399;-61
2021/11/16 00:36:39;0.00;0.00;0.62;0.00;0.00;0.62;4.47;3.43;;;22.90;28.60;;;;;;2221825;62;20374;-61
2021/11/16 00:39:23;0.00;0.00;0.62;0.00;0.00;0.62;5.40;3.80;;;22.90;28.60;;;;;;2221632;62;20370;-63
2021/11/16 00:42:08;0.00;0.00;0.62;0.00;0.00;0.62;4.80;3.53;;;22.90;28.60;;;;;;2222013;62;20402;-63
2021/11/16 00:44:53;0.00;0.00;0.62;0.00;0.00;0.62;4.03;3.53;;;23.00;28.70;;;;;;2222187;62;20796;-62
2021/11/16 00:47:38;0.00;0.00;0.62;0.00;0.00;0.62;5.60;3.57;;;23.00;28.70;;;;;;2221398;62;20481;-63
2021/11/16 00:50:24;0.00;0.00;0.62;0.00;0.00;0.62;6.80;2.93;;;23.00;28.70;;;;;;2220971;62;20374;-61
2021/11/16 00:53:10;0.00;0.00;0.62;0.00;0.00;0.62;4.60;3.63;;;23.00;28.70;;;;;;2220378;62;20391;-61
2021/11/16 00:55:56;0.00;0.00;0.62;0.00;0.00;0.62;3.93;3.03;;;23.00;28.70;;;;;;2222118;62;20415;-60
2021/11/16 00:58:41;0.00;0.00;0.62;0.00;0.00;0.62;4.37;3.63;;;23.00;28.70;;;;;;2221919;62;20367;-60
2021/11/16 01:01:26;0.00;0.00;0.62;0.00;0.00;0.62;4.20;3.03;;;23.00;28.70;;;;;;2222162;62;20367;-60
2021/11/16 01:04:10;0.00;0.00;0.62;0.00;0.00;0.62;4.03;2.83;;;23.00;28.70;;;;;;2221872;62;20432;-60
2021/11/16 01:06:57;0.00;0.00;0.62;0.00;0.00;0.62;3.90;2.77;;;23.00;28.70;;;;;;2221920;62;20477;-61
2021/11/16 01:09:42;0.00;0.00;0.62;0.00;0.00;0.62;4.40;3.13;;;23.00;29.20;;;;;;2222096;62;20583;-60
2021/11/16 01:12:27;0.00;0.00;0.62;0.00;0.00;0.62;3.80;2.70;;;23.00;28.70;;;;;;2221654;62;20722;-60
2021/11/16 01:15:15;0.00;0.00;0.62;0.00;0.00;0.62;5.97;3.70;;;23.00;28.70;;;;;;2221940;62;20391;-60
2021/11/16 01:18:00;0.00;0.00;0.62;0.00;0.00;0.62;4.30;3.27;;;23.00;28.70;;;;;;2221627;62;20452;-59
2021/11/16 01:20:45;0.00;0.00;0.62;0.00;0.00;0.62;3.33;2.73;;;23.00;28.70;;;;;;2221573;62;20416;-60
2021/11/16 01:23:32;0.00;0.00;0.62;0.00;0.00;0.62;4.53;3.63;;;23.00;28.70;;;;;;2221242;62;20743;-60
2021/11/16 01:26:17;0.00;0.00;0.62;0.00;0.00;0.62;4.93;3.20;;;23.00;28.70;;;;;;2221891;62;20380;-59
2021/11/16 01:29:02;0.00;0.00;0.62;0.00;0.00;0.62;3.90;2.87;;;23.00;28.70;;;;;;2221893;62;20803;-60
2021/11/16 01:31:51;0.00;0.00;0.62;0.00;0.00;0.62;3.80;2.60;;;23.00;28.70;;;;;;2222075;62;20769;-60
2021/11/16 01:34:35;0.00;0.00;0.62;0.00;0.00;0.62;3.87;3.10;;;23.00;28.70;;;;;;2221567;62;20390;-60
2021/11/16 01:37:20;0.00;0.00;0.62;0.00;0.00;0.62;4.83;3.17;;;23.00;28.70;;;;;;2222183;62;20668;-60
2021/11/16 01:40:14;0.00;0.00;0.62;0.00;0.00;0.62;3.73;2.53;;;23.00;28.70;;;;;;2222023;62;20643;-60
2021/11/16 01:43:00;0.00;0.00;0.62;0.00;0.00;0.62;4.27;3.53;;;23.00;28.70;;;;;;2221544;62;20590;-60
2021/11/16 01:45:45;0.00;0.00;0.62;0.00;0.00;0.62;3.70;3.10;;;23.00;28.70;;;;;;2221941;62;20391;-59
2021/11/16 01:48:30;0.00;0.00;0.62;0.00;0.00;0.62;3.50;3.10;;;23.00;28.70;;;;;;2221868;62;20444;-60
2021/11/16 01:51:15;0.00;0.00;0.62;0.00;0.00;0.62;4.10;3.63;;;23.00;28.70;;;;;;2221874;62;20423;-60
2021/11/16 01:54:04;0.00;0.00;0.62;0.00;0.00;0.62;3.80;2.93;;;23.00;28.70;;;;;;2221901;62;20414;-60
2021/11/16 01:56:50;0.00;0.00;0.62;0.00;0.00;0.62;5.57;4.43;;;22.90;28.70;;;;;;2221469;62;20463;-60
2021/11/16 01:59:35;0.00;0.00;0.62;0.00;0.00;0.62;6.40;3.87;;;23.00;28.70;;;;;;2221918;62;20780;-60
2021/11/16 02:02:03;0.00;0.00;0.62;0.00;0.00;0.62;4.33;3.73;;;22.90;28.60;;;;;;2222140;62;20536;-60
2021/11/16 02:04:53;0.00;0.00;0.62;0.00;0.00;0.62;4.93;3.87;;;22.90;28.60;;;;;;2221136;62;20391;-59
2021/11/16 02:07:43;0.00;0.00;0.62;0.00;0.00;0.62;4.70;3.80;;;23.00;28.70;;;;;;2221893;62;20452;-60
2021/11/16 02:10:28;0.00;0.00;0.62;0.00;0.00;0.62;4.33;3.50;;;23.00;28.70;;;;;;2221910;62;20399;-60
2021/11/16 02:13:17;0.00;0.00;0.62;0.00;0.00;0.62;4.87;4.00;;;23.00;28.70;;;;;;2221605;62;20371;-60
2021/11/16 02:16:02;0.00;0.00;0.62;0.00;0.00;0.62;4.33;3.10;;;22.90;28.60;;;;;;2221816;62;20366;-60
2021/11/16 02:18:47;0.00;0.00;0.62;0.00;0.00;0.62;5.90;4.43;;;23.00;28.70;;;;;;2221477;62;20739;-60
2021/11/16 02:21:33;0.00;0.00;0.62;0.00;0.00;0.62;4.13;3.20;;;22.90;28.60;;;;;;2221932;62;20445;-59
2021/11/16 02:24:18;0.00;0.00;0.62;0.00;0.00;0.62;4.73;3.30;;;22.90;28.60;;;;;;2222631;62;20394;-60
2021/11/16 02:27:03;0.00;0.00;0.62;0.00;0.00;0.62;5.40;4.00;;;23.00;28.70;;;;;;2222065;62;20379;-60
2021/11/16 02:29:48;0.00;0.00;0.62;0.00;0.00;0.62;5.40;4.03;;;23.00;28.70;;;;;;2222567;62;20731;-60
2021/11/16 02:32:33;0.00;0.00;0.62;0.00;0.00;0.62;7.63;5.50;;;22.90;28.70;;;;;;2222327;62;20747;-60
2021/11/16 02:35:19;0.00;0.00;0.62;0.00;0.00;0.62;8.50;6.13;;;22.90;28.60;;;;;;2221964;62;20616;-60
2021/11/16 02:38:06;0.00;0.00;0.62;0.00;0.00;0.62;8.33;6.70;;;22.90;28.60;;;;;;2222588;62;20371;-60
2021/11/16 02:40:53;0.00;0.00;0.62;0.00;0.00;0.62;8.83;6.93;;;22.90;28.60;;;;;;2222037;62;20602;-60
2021/11/16 02:43:40;0.00;0.00;0.62;0.00;0.00;0.62;9.10;7.50;;;22.90;28.50;;;;;;2222336;62;20402;-60
2021/11/16 02:46:26;0.00;0.00;0.62;0.00;0.00;0.62;10.00;7.97;;;22.90;28.50;;;;;;2222599;62;20375;-60
2021/11/16 02:49:11;0.00;0.00;0.62;0.00;0.00;0.62;9.37;8.37;;;22.90;28.50;;;;;;2222126;62;20380;-60
2021/11/16 02:51:55;0.00;0.00;0.62;0.00;0.00;0.62;12.03;8.80;;;22.80;28.30;;;;;;2222546;62;20374;-60
2021/11/16 02:54:42;0.00;0.00;0.62;0.00;0.00;0.62;10.43;8.67;;;22.80;28.30;;;;;;2222584;62;20387;-60
2021/11/16 02:57:27;0.00;0.00;0.62;0.00;0.00;0.62;11.93;9.70;;;22.80;28.30;;;;;;2222244;62;20367;-60
2021/11/16 03:00:15;0.00;0.00;0.62;0.00;0.00;0.62;12.50;9.47;;;22.80;28.30;;;;;;2222605;62;20406;-60
2021/11/16 03:03:01;0.00;0.00;0.62;0.00;0.00;0.62;11.13;9.10;;;22.80;28.30;;;;;;2221859;62;20363;-60
2021/11/16 03:05:45;0.00;0.00;0.62;0.00;0.00;0.62;13.60;9.80;;;22.70;28.20;;;;;;2222413;62;20374;-60
2021/11/16 03:08:30;0.00;0.00;0.62;0.00;0.00;0.62;11.97;9.97;;;22.70;28.20;;;;;;2222505;62;20479;-60
2021/11/16 03:11:16;0.00;0.00;0.62;0.00;0.00;0.62;14.73;9.50;;;22.70;28.10;;;;;;2222066;62;20367;-60
2021/11/16 03:14:01;0.00;0.00;0.62;0.00;0.00;0.62;12.03;8.97;;;22.70;28.20;;;;;;2222397;62;20391;-60
2021/11/16 03:16:47;0.00;0.00;0.62;0.00;0.00;0.62;13.03;9.10;;;22.70;28.20;;;;;;2222200;62;20894;-60
2021/11/16 03:19:33;0.00;0.00;0.62;0.00;0.00;0.62;15.37;11.17;;;22.70;28.10;;;;;;2222251;62;20386;-60
2021/11/16 03:22:18;0.00;0.00;0.62;0.00;0.00;0.62;12.93;9.63;;;22.60;28.10;;;;;;2222409;62;20376;-60
2021/11/16 03:25:03;0.00;0.00;0.62;0.00;0.00;0.62;14.13;10.67;;;22.60;28.10;;;;;;2222385;62;20481;-60
2021/11/16 03:28:00;0.00;0.00;0.62;0.00;0.00;0.62;15.83;11.63;;;22.60;28.10;;;;;;2222401;62;20403;-59
2021/11/16 03:30:50;0.00;0.00;0.62;0.00;0.00;0.62;15.70;12.53;;;22.60;28.10;;;;;;2222458;62;20371;-60
2021/11/16 03:33:35;0.00;0.00;0.62;0.00;0.00;0.62;19.50;12.63;;;22.60;28.00;;;;;;2221596;62;20408;-60
2021/11/16 03:36:22;0.00;0.00;0.62;0.00;0.00;0.62;17.20;12.70;;;22.50;27.90;;;;;;2222387;62;20363;-60
2021/11/16 03:39:06;0.00;0.00;0.62;0.00;0.00;0.62;17.03;12.70;;;22.50;27.90;;;;;;2222176;62;20368;-60
2021/11/16 03:41:51;0.00;0.00;0.62;0.00;0.00;0.62;15.50;11.77;;;22.50;27.90;;;;;;2222119;62;20489;-60
2021/11/16 03:44:38;0.00;0.00;0.62;0.00;0.00;0.62;16.40;13.30;;;22.50;27.90;;;;;;2222256;62;20438;-60
2021/11/16 03:47:23;0.00;0.00;0.62;0.00;0.00;0.62;14.53;11.63;;;22.50;27.90;;;;;;2222077;62;20391;-60
2021/11/16 03:50:11;0.00;0.00;0.62;0.00;0.00;0.62;14.07;11.57;;;22.40;27.80;;;;;;2222329;62;20444;-60
2021/11/16 03:52:59;0.00;0.00;0.62;0.00;0.00;0.62;19.30;13.60;;;22.40;27.80;;;;;;2222310;62;20366;-60
2021/11/16 03:55:45;0.00;0.00;0.62;0.00;0.00;0.62;15.60;12.30;;;22.40;27.90;;;;;;2221874;62;20389;-60
2021/11/16 03:58:30;0.00;0.00;0.62;0.00;0.00;0.62;15.17;11.27;;;22.40;27.80;;;;;;2222306;62;20362;-60
2021/11/16 04:01:17;0.00;0.00;0.62;0.00;0.00;0.62;15.90;13.40;;;22.40;27.80;;;;;;2222165;62;20768;-60
2021/11/16 04:04:03;0.00;0.00;0.62;0.00;0.00;0.62;18.27;13.27;;;22.30;27.80;;;;;;2222000;62;20391;-60
2021/11/16 04:06:47;0.00;0.00;0.62;0.00;0.00;0.62;18.03;13.67;;;22.30;27.80;;;;;;2222289;62;20420;-60
2021/11/16 04:09:32;0.00;0.00;0.62;0.00;0.00;0.62;15.10;12.10;;;22.30;27.80;;;;;;2222292;62;20742;-60
2021/11/16 04:12:17;0.00;0.00;0.62;0.00;0.00;0.62;19.63;13.97;;;22.30;27.70;;;;;;2222171;62;20772;-60
2021/11/16 04:15:01;0.00;0.00;0.62;0.00;0.00;0.62;17.30;13.30;;;22.30;27.80;;;;;;2222309;62;20750;-60
2021/11/16 04:17:47;0.00;0.00;0.62;0.00;0.00;0.62;17.27;12.93;;;22.30;27.80;;;;;;2221980;62;20371;-60
2021/11/16 04:20:34;0.00;0.00;0.62;0.00;0.00;0.62;16.57;12.87;;;22.30;27.80;;;;;;2222220;62;20355;-60
2021/11/16 04:23:02;0.00;0.00;0.62;0.00;0.00;0.62;17.07;13.70;;;22.30;27.80;;;;;;2222105;62;20356;-60
2021/11/16 04:25:49;0.00;0.00;0.62;0.00;0.00;0.62;20.30;14.80;;;22.20;27.70;;;;;;2222181;62;20616;-60
2021/11/16 04:28:33;0.00;0.00;0.62;0.00;0.00;0.62;17.37;13.53;;;22.20;27.60;;;;;;2222167;62;20395;-60
2021/11/16 04:31:18;0.00;0.00;0.62;0.00;0.00;0.62;19.10;13.40;;;22.20;27.60;;;;;;2222231;62;20408;-60
2021/11/16 04:34:05;0.00;0.00;0.62;0.00;0.00;0.62;19.30;14.07;;;22.10;27.60;;;;;;2221895;62;20468;-60
2021/11/16 04:36:50;0.00;0.00;0.62;0.00;0.00;0.62;17.27;12.77;;;22.10;27.60;;;;;;2222207;62;20367;-60
2021/11/16 04:39:34;0.00;0.00;0.62;0.00;0.00;0.62;18.90;14.60;;;22.10;27.60;;;;;;2221676;62;20620;-60
2021/11/16 04:42:20;0.00;0.00;0.62;0.00;0.00;0.62;21.53;14.17;;;22.10;27.60;;;;;;2222050;62;20447;-60
2021/11/16 04:45:08;0.00;0.00;0.62;0.00;0.00;0.62;19.37;14.77;;;22.10;27.60;;;;;;2222085;62;20762;-60
2021/11/16 04:48:00;0.00;0.00;0.62;0.00;0.00;0.62;17.27;13.97;;;22.10;27.60;;;;;;2221808;62;20464;-60
2021/11/16 04:59:54;0.00;0.00;0.62;0.00;0.00;0.62;17.97;13.93;;;22.00;27.50;;;;;;2222180;62;20408;-60
2021/11/16 05:02:43;0.00;0.00;0.62;0.00;0.00;0.62;19.43;14.30;;;22.00;27.60;;;;;;2221632;62;20742;-60
2021/11/16 05:05:27;0.00;0.00;0.62;0.00;0.00;0.62;18.20;13.43;;;22.00;27.60;;;;;;2222093;62;20418;-60
2021/11/16 05:08:15;0.00;0.00;0.62;0.00;0.00;0.62;19.93;14.93;;;22.00;27.60;;;;;;2221777;62;20394;-60
2021/11/16 05:10:59;0.00;0.00;0.62;0.00;0.00;0.62;21.17;15.30;;;22.00;27.60;;;;;;2222056;62;20375;-60
2021/11/16 05:13:44;0.00;0.00;0.62;0.00;0.00;0.62;21.80;15.60;;;21.90;27.50;;;;;;2221600;62;20432;-60
2021/11/16 05:16:29;0.00;0.00;0.62;0.00;0.00;0.62;18.63;13.73;;;21.90;27.60;;;;;;2221555;62;20695;-60
2021/11/16 05:19:14;0.00;0.00;0.62;0.00;0.00;0.62;18.40;14.27;;;21.90;27.50;;;;;;2222074;62;20663;-60
2021/11/16 05:21:59;0.00;0.00;0.62;0.00;0.00;0.62;19.60;14.50;;;21.90;27.50;;;;;;2222067;62;20412;-60
2021/11/16 05:24:45;0.00;0.00;0.62;0.00;0.00;0.62;19.53;14.97;;;21.90;27.60;;;;;;2221689;62;20390;-60
2021/11/16 05:27:29;0.00;0.00;0.62;0.00;0.00;0.62;20.23;14.60;;;21.90;27.60;;;;;;2222128;62;20619;-60
2021/11/16 05:30:15;0.00;0.00;0.62;0.00;0.00;0.62;20.80;15.53;;;21.80;27.50;;;;;;2222090;62;20625;-60
2021/11/16 05:33:01;0.00;0.00;0.62;0.00;0.00;0.62;18.83;15.10;;;21.80;27.50;;;;;;2221706;62;20367;-60
2021/11/16 05:35:45;0.00;0.00;0.62;0.00;0.00;0.62;23.20;15.67;;;21.80;27.50;;;;;;2221821;62;20444;-60
2021/11/16 05:38:34;0.00;0.00;0.62;0.00;0.00;0.62;21.00;15.87;;;21.80;27.50;;;;;;2221440;62;20416;-60
2021/11/16 05:41:20;0.00;0.00;0.62;0.00;0.00;0.62;22.57;16.43;;;21.80;27.50;;;;;;2221948;62;20370;-60
2021/11/16 05:44:06;0.00;0.00;0.62;0.00;0.00;0.62;21.60;16.30;;;21.80;27.50;;;;;;2221887;62;20391;-60
2021/11/16 05:46:51;0.00;0.00;0.62;0.00;0.00;0.62;20.70;14.97;;;21.80;27.50;;;;;;2221547;62;20404;-60
2021/11/16 05:49:35;0.00;0.00;0.62;0.00;0.00;0.62;21.37;16.50;;;21.80;27.50;;;;;;2222039;62;20432;-60
2021/11/16 05:52:20;0.00;0.00;0.62;0.00;0.00;0.62;19.40;14.83;;;21.70;27.40;;;;;;2221756;62;20375;-60
2021/11/16 05:55:09;0.00;0.00;0.62;0.00;0.00;0.62;24.17;17.03;;;21.80;27.50;;;;;;2221752;62;20606;-60
2021/11/16 05:57:37;0.00;0.00;0.62;0.00;0.00;0.62;20.57;14.90;;;21.70;27.40;;;;;;2222402;62;20352;-60
2021/11/16 06:00:23;0.00;0.00;0.62;0.00;0.00;0.62;22.63;16.13;;;21.70;27.40;;;;;;2222674;62;20424;-60
2021/11/16 06:03:08;0.00;0.00;0.62;0.00;0.00;0.62;23.57;15.27;;;21.70;27.40;;;;;;2222389;62;20375;-60
2021/11/16 06:05:52;0.00;0.00;0.62;0.00;0.00;0.62;21.20;15.17;;;21.70;27.40;;;;;;2222543;62;20463;-60
2021/11/16 06:08:37;0.00;0.00;0.62;0.00;0.00;0.62;23.47;15.87;;;21.70;27.40;;;;;;2221994;62;20671;-60
2021/11/16 06:11:23;0.00;0.00;0.62;0.00;0.00;0.62;22.00;16.30;;;21.70;27.40;;;;;;2222624;62;20371;-60
2021/11/16 06:14:09;0.00;0.00;0.62;0.00;0.00;0.62;19.50;15.20;;;21.70;27.40;;;;;;2222532;62;20394;-60
2021/11/16 06:16:54;0.00;0.00;0.62;0.00;0.00;0.62;21.27;13.70;;;21.70;27.40;;;;;;2222198;62;20371;-60
2021/11/16 06:19:40;0.00;0.00;0.62;0.00;0.00;0.62;24.43;16.70;;;21.60;27.40;;;;;;2222519;62;20780;-60
2021/11/16 06:22:25;0.00;0.00;0.62;0.00;0.00;0.62;22.43;15.70;;;21.60;27.40;;;;;;2222356;62;20379;-60
2021/11/16 06:25:09;0.00;0.00;0.62;0.00;0.00;0.62;21.27;15.80;;;21.60;27.40;;;;;;2222622;62;20389;-62
2021/11/16 06:27:54;0.00;0.00;0.62;0.00;0.00;0.62;20.03;14.07;;;21.60;27.40;;;;;;2222558;62;20866;-60
2021/11/16 06:30:40;0.00;0.00;0.62;0.00;0.00;0.62;21.17;15.73;;;21.60;27.40;;;;;;2222145;62;20402;-60
2021/11/16 06:33:25;0.00;0.00;0.62;0.00;0.00;0.62;20.40;14.97;;;21.60;27.40;;;;;;2222433;62;20399;-60
2021/11/16 06:36:10;0.00;0.00;0.62;0.00;0.00;0.62;25.20;15.77;;;21.60;27.40;;;;;;2222562;62;20767;-60
2021/11/16 06:38:55;0.00;0.00;0.62;0.00;0.00;0.62;20.83;15.30;;;21.60;27.40;;;;;;2222234;62;20403;-60
2021/11/16 06:41:41;0.00;0.00;0.62;0.00;0.00;0.62;19.80;14.43;;;21.60;27.30;;;;;;2222474;62;20364;-62
2021/11/16 06:44:26;0.00;0.00;0.62;0.00;0.00;0.62;21.63;14.87;;;21.50;27.30;;;;;;2222263;62;20389;-59
2021/11/16 06:47:15;0.00;0.00;0.62;0.00;0.00;0.62;19.10;15.10;;;21.50;27.30;;;;;;2222320;62;20363;-59
2021/11/16 06:50:00;0.00;0.00;0.62;0.00;0.00;0.62;23.47;16.00;;;21.50;27.30;;;;;;2222684;62;20375;-59
2021/11/16 06:52:45;0.00;0.00;0.62;0.00;0.00;0.62;19.67;14.83;;;21.50;27.30;;;;;;2222050;62;20416;-59
2021/11/16 06:55:30;0.00;0.00;0.62;0.00;0.00;0.62;20.83;14.27;;;21.50;27.30;;;;;;2222674;62;20374;-60
2021/11/16 06:58:15;0.00;0.00;0.62;0.00;0.00;0.62;19.73;14.17;;;21.50;27.30;;;;;;2222606;62;20394;-59
2021/11/16 07:01:01;0.00;0.00;0.62;0.00;0.00;0.62;19.70;14.30;;;21.50;27.30;;;;;;2221620;62;20375;-59
2021/11/16 07:03:51;0.00;0.00;0.62;0.00;0.00;0.62;18.10;14.33;;;21.40;27.20;;;;;;2222356;62;20391;-59
2021/11/16 07:06:38;0.00;0.00;0.62;0.00;0.00;0.62;18.10;14.03;;;21.40;27.30;;;;;;2222283;62;20468;-59
2021/11/16 07:09:22;0.00;0.00;0.62;0.00;0.00;0.62;20.63;14.43;;;21.50;27.40;;;;;;2222277;62;20604;-61
2021/11/16 07:12:12;0.00;0.00;0.62;0.00;0.00;0.62;19.80;14.27;;;21.40;27.30;;;;;;2222687;62;20439;-59
2021/11/16 07:14:56;0.00;0.00;0.62;0.00;0.00;0.62;20.47;14.43;;;21.40;27.30;;;;;;2221922;62;20393;-59
2021/11/16 07:17:41;0.00;0.00;0.62;0.00;0.00;0.62;17.23;13.37;;;21.40;27.30;;;;;;2222438;62;20579;-60
2021/11/16 07:20:27;0.00;0.00;0.62;0.00;0.00;0.62;20.20;13.50;;;21.40;27.30;;;;;;2222542;62;20387;-60
2021/11/16 07:23:12;0.00;0.00;0.62;0.00;0.00;0.62;22.73;14.70;;;21.40;27.90;;;;;;2221803;62;20607;-59
2021/11/16 07:25:57;0.00;0.00;0.62;0.00;0.00;0.62;22.17;14.67;;;21.40;27.90;;;;;;2222349;62;20376;-59
2021/11/16 07:28:48;0.00;0.00;0.62;0.00;0.00;0.62;23.63;15.90;;;21.40;27.40;;;;;;2222369;62;20758;-60
2021/11/16 07:31:33;0.00;0.00;0.62;0.00;0.00;0.62;20.00;14.73;;;21.40;27.40;;;;;;2222350;62;20428;-60
2021/11/16 07:34:20;0.00;0.00;0.62;0.00;0.00;0.62;18.80;13.70;;;21.30;27.30;;;;;;2222275;62;20448;-60
2021/11/16 07:37:09;0.00;0.00;0.62;0.00;0.00;0.62;18.57;14.27;;;21.30;27.30;;;;;;2221810;62;20371;-60
2021/11/16 07:39:59;0.00;0.00;0.62;0.00;0.00;0.62;18.10;14.57;;;21.30;27.30;;;;;;2222387;62;20378;-59
2021/11/16 07:42:50;0.00;0.00;0.62;0.00;0.00;0.62;19.70;14.53;;;21.30;27.30;;;;;;2222296;62;20375;-61
2021/11/16 07:45:37;0.00;0.00;0.62;0.00;0.00;0.62;22.83;15.27;;;21.30;27.30;;;;;;2222209;62;20711;-60
2021/11/16 07:48:25;0.00;0.00;0.62;0.00;0.00;0.62;19.00;14.93;;;21.30;27.30;;;;;;2222338;62;20828;-60
2021/11/16 07:51:12;0.00;0.00;0.62;0.00;0.00;0.62;18.80;13.77;;;21.30;27.30;;;;;;2222163;62;20411;-59
2021/11/16 07:53:58;0.00;0.00;0.62;0.00;0.00;0.62;20.90;13.97;;;21.30;27.30;;;;;;2222227;62;20606;-59
2021/11/16 07:56:43;0.00;0.00;0.62;0.00;0.00;0.62;18.93;14.00;;;21.20;27.20;;;;;;2222299;62;20500;-60
2021/11/16 07:59:30;0.00;0.00;0.62;0.00;0.00;0.62;18.80;12.73;;;21.30;27.30;;;;;;2222037;62;20636;-59
2021/11/16 08:02:28;0.00;0.00;0.62;0.00;0.00;0.62;20.40;15.07;;;21.20;27.20;;;;;;2221791;62;20454;-60
2021/11/16 08:05:39;0.00;0.00;0.62;0.00;0.00;0.62;21.87;15.17;;;21.20;27.20;;;;;;2222106;62;20777;-59
2021/11/16 08:11:29;0.00;0.00;0.62;0.00;0.00;0.62;25.53;16.27;;;21.20;27.20;;;;;;2222224;62;20750;-62
2021/11/16 08:14:15;0.00;0.00;0.62;0.00;0.00;0.62;20.33;13.17;;;21.20;27.20;;;;;;2221887;62;20395;-61
2021/11/16 08:17:04;0.00;0.00;0.62;0.00;0.00;0.62;20.23;14.20;;;21.20;27.20;;;;;;2222107;62;20375;-62
2021/11/16 08:19:55;0.00;0.00;0.62;0.00;0.00;0.62;19.20;14.20;;;21.20;27.30;;;;;;2222052;62;20429;-62
2021/11/16 08:22:41;0.00;0.00;0.62;0.00;0.00;0.62;23.33;15.10;;;21.10;27.30;;;;;;2222081;62;20379;-61
2021/11/16 08:25:25;0.00;0.00;0.62;0.00;0.00;0.62;18.43;13.27;;;21.20;27.40;;;;;;2221667;62;20870;-62
2021/11/16 08:28:11;0.00;0.00;0.62;0.00;0.00;0.62;20.23;13.90;;;21.10;27.40;;;;;;2221764;62;20865;-62
2021/11/16 08:30:57;0.00;0.00;0.62;0.00;0.00;0.62;20.87;14.50;;;21.10;27.40;;;;;;2221835;62;20374;-61
2021/11/16 08:33:43;0.00;0.00;0.62;0.00;0.00;0.62;19.20;13.17;;;21.10;27.40;;;;;;2221874;62;20409;-63
2021/11/16 08:36:31;0.00;0.00;0.62;0.00;0.00;0.62;17.40;12.80;;;21.10;27.40;;;;;;2221508;62;20426;-63
2021/11/16 08:39:18;0.00;0.00;0.62;0.00;0.00;0.62;17.57;13.37;;;21.10;27.40;;;;;;2222077;62;20413;-61
2021/11/16 08:42:10;0.00;0.00;0.62;0.00;0.00;0.62;17.43;13.20;;;21.10;27.40;;;;;;2222012;62;20367;-60
2021/11/16 08:45:01;0.00;0.00;0.62;0.00;0.00;0.62;24.23;15.10;;;21.10;27.40;;;;;;2221577;62;20458;-61
2021/11/16 08:47:50;0.00;0.00;0.62;0.00;0.00;0.62;20.10;14.23;;;21.10;27.40;;;;;;2222129;62;20402;-60
2021/11/16 08:50:40;0.00;0.00;0.62;0.00;0.00;0.62;20.03;14.43;;;21.10;27.40;;;;;;2222065;62;20509;-62
2021/11/16 08:53:30;0.00;0.00;0.62;0.00;0.00;0.62;18.80;14.63;;;21.10;27.40;;;;;;2221881;62;20806;-61
2021/11/16 08:56:21;0.00;0.00;0.62;0.00;0.00;0.62;19.40;14.40;;;21.10;27.40;;;;;;2221937;62;20363;-62
2021/11/16 08:59:14;0.00;0.00;0.62;0.00;0.00;0.62;19.30;13.27;;;21.10;27.40;;;;;;2221496;62;20367;-61
2021/11/16 09:02:05;0.00;0.00;0.62;0.00;0.00;0.62;18.47;13.97;;;21.10;27.40;;;;;;2222123;62;20371;-62
2021/11/16 09:04:50;0.00;0.00;0.62;0.00;0.00;0.62;20.40;14.13;;;21.10;27.40;;;;;;2221740;62;20403;-60
2021/11/16 09:07:35;0.00;0.00;0.62;0.00;0.00;0.62;19.47;13.30;;;21.10;27.40;;;;;;2221562;62;20387;-62
2021/11/16 09:10:20;0.00;0.00;0.62;0.00;0.00;0.62;19.27;14.00;;;21.10;27.40;;;;;;2222045;62;20391;-62
2021/11/16 09:13:08;0.00;0.00;0.62;0.00;0.00;0.62;25.40;16.17;;;21.10;27.40;;;;;;2221298;62;20575;-60
2021/11/16 09:15:55;0.00;0.00;0.62;0.00;0.00;0.62;21.57;14.70;;;21.10;27.40;;;;;;2222077;62;20407;-62
2021/11/16 09:18:43;0.00;0.00;0.62;0.00;0.00;0.62;20.40;13.77;;;21.10;27.40;;;;;;2221916;62;20363;-61
2021/11/16 09:21:38;0.00;0.00;0.62;0.00;0.00;0.62;20.40;15.30;;;21.10;27.40;;;;;;2221242;62;20374;-60
2021/11/16 09:24:31;0.00;0.00;0.62;0.00;0.00;0.62;18.97;14.07;;;21.10;27.40;;;;;;2221975;62;20383;-60
2021/11/16 09:27:43;0.00;0.00;0.62;0.00;0.00;0.62;20.97;14.63;;;21.10;27.40;;;;;;2221565;62;20424;-61
2021/11/16 09:30:38;0.00;0.00;0.62;0.00;0.00;0.62;23.00;14.80;;;21.10;27.40;;;;;;2222051;62;20367;-61
2021/11/16 09:33:22;0.00;0.00;0.62;0.00;0.00;0.62;20.93;14.90;;;21.10;27.40;;;;;;2222040;62;20730;-61
2021/11/16 09:36:09;0.00;0.00;0.62;0.00;0.00;0.62;20.10;14.67;;;21.10;27.40;;;;;;2221750;62;20572;-59
2021/11/16 09:38:58;0.00;0.00;0.62;0.00;0.00;0.62;20.37;13.80;;;21.10;27.40;;;;;;2222542;62;20440;-60
2021/11/16 09:41:46;0.00;0.00;0.62;0.00;0.00;0.62;22.50;15.57;;;21.10;27.40;;;;;;2221650;62;20370;-60
2021/11/16 09:44:33;0.00;0.00;0.62;0.00;0.00;0.62;17.70;13.37;;;21.10;27.40;;;;;;2221852;62;20390;-61
2021/11/16 09:47:22;0.00;0.00;0.62;0.00;0.00;0.62;21.37;14.57;;;21.10;27.40;;;;;;2222135;62;20390;-61
2021/11/16 09:50:10;0.00;0.00;0.62;0.00;0.00;0.62;20.43;15.83;;;21.10;27.40;;;;;;2221629;62;20628;-60
2021/11/16 09:53:03;0.00;0.00;0.62;0.00;0.00;0.62;21.77;15.10;;;21.10;27.40;;;;;;2222359;62;20586;-62
2021/11/16 09:55:48;0.00;0.00;0.62;0.00;0.00;0.62;19.30;14.50;;;21.10;27.90;;;;;;2221961;62;20707;-62
2021/11/16 09:58:37;0.00;0.00;0.62;0.00;0.00;0.62;20.20;14.67;;;21.10;27.40;;;;;;2221716;62;20519;-62
2021/11/16 10:01:26;0.00;0.00;0.62;0.00;0.00;0.62;18.80;14.63;;;21.10;27.40;;;;;;2222357;62;20392;-62
2021/11/16 10:04:16;0.00;0.00;0.62;0.00;0.00;0.62;20.23;14.97;;;21.00;27.30;;;;;;2221727;62;20382;-62
2021/11/16 10:07:01;0.00;0.00;0.62;0.00;0.00;0.62;19.03;14.20;;;21.10;27.40;;;;;;2221973;62;20404;-62
2021/11/16 10:09:49;0.00;0.00;0.62;0.00;0.00;0.62;17.80;13.33;;;21.10;27.40;;;;;;2222014;62;20668;-62
2021/11/16 10:12:40;0.00;0.00;0.62;0.00;0.00;0.62;22.30;15.43;;;21.10;27.40;;;;;;2221504;62;20395;-62
2021/11/16 10:15:28;0.00;0.00;0.62;0.00;0.00;0.62;20.30;15.03;;;21.00;27.30;;;;;;2222441;62;20400;-61
2021/11/16 10:18:15;0.00;0.00;0.62;0.00;0.00;0.62;22.60;16.07;;;21.10;27.40;;;;;;2221997;62;20401;-62
2021/11/16 10:21:00;0.00;0.00;0.62;0.00;0.00;0.62;21.03;15.70;;;21.10;27.40;;;;;;2221678;62;20393;-61
2021/11/16 10:23:49;0.00;0.00;0.62;0.00;0.00;0.62;17.77;13.60;;;21.10;27.40;;;;;;2222103;62;20394;-62
2021/11/16 10:26:35;0.00;0.00;0.62;0.00;0.00;0.62;20.50;14.40;;;21.10;27.40;;;;;;2221771;62;20504;-63
2021/11/16 10:29:20;0.00;0.00;0.62;0.00;0.00;0.62;15.80;11.93;;;21.10;27.40;;;;;;2221934;62;20387;-62
2021/11/16 10:32:18;0.00;0.00;0.62;0.00;0.00;0.62;15.90;12.63;;;21.00;27.30;;;;;;2221896;62;20363;-62
2021/11/16 10:35:10;0.00;0.00;0.62;0.00;0.00;0.62;17.73;13.40;;;21.10;27.40;;;;;;2221351;62;20877;-61
2021/11/16 10:37:57;0.00;0.00;0.62;0.00;0.00;0.62;17.77;12.87;;;21.10;27.40;;;;;;2222034;62;20364;-61
2021/11/16 10:40:42;0.00;0.00;0.62;0.00;0.00;0.62;17.83;13.63;;;21.10;27.40;;;;;;2222110;62;20676;-60
2021/11/16 10:43:36;0.00;0.00;0.62;0.00;0.00;0.62;18.80;12.43;;;21.10;27.40;;;;;;2222013;62;20447;-60
2021/11/16 10:46:24;0.00;0.00;0.62;0.00;0.00;0.62;15.00;12.00;;;21.10;27.40;;;;;;2222676;62;20367;-60
2021/11/16 10:49:14;0.00;0.00;0.62;0.00;0.00;0.62;14.70;11.73;;;21.10;27.40;;;;;;2222501;62;20435;-60
2021/11/16 10:51:59;0.00;0.00;0.62;0.00;0.00;0.62;19.17;12.77;;;21.10;27.40;;;;;;2222676;62;20401;-60
2021/11/16 10:54:56;0.00;0.00;0.62;0.00;0.00;0.62;15.90;11.43;;;21.10;27.40;;;;;;2222553;62;20673;-62
2021/11/16 10:57:53;0.00;0.00;0.62;0.00;0.00;0.62;15.37;11.53;;;21.20;27.50;;;;;;2222093;62;20787;-60
2021/11/16 11:00:51;0.00;0.00;0.62;0.00;0.00;0.62;15.10;11.60;;;21.20;27.40;;;;;;2222844;62;20363;-62